Airfield :
LOGIN :

Register | Disclaimer

   EN    FR    IT 

 










Legend :    VFR   Marginal VFR   IFR   Intensive IFR   Very Intensive IFR
Visi :
Ceiling :
>= 8 km
>= 3000ft
5 to 8 km
1000 to 3000 ft
1500m to 5 km
500 to 1000 ft
800 to 1500m
200 to 500 ft
< 800m
< 200 ft
Symbols :   Thunderstorms  Fog  Heavy snow  Heavy precipitations  Wind > 20 kt
SIGMETs :     Misc.  Thunderstorms  Icing  Turbulence  Mountain Waves  Volcanic Ashes






- Airport Elevation : 226 ft
- IATA code : BEX


EGUB - RAF Benson

CURRENT METAR :
  • 051920Z AUTO 13002KT 9999 NCD M03/M04 Q1046

EXPIRED METARs :
  • 051850Z AUTO 20001KT 9999 NCD M02/M03 Q1046
  • 051820Z AUTO 10002KT 9999 SCT190/// M01/M03 Q1045
  • 051750Z AUTO 10002KT 9999 NCD M01/M03 Q1045
  • 051720Z AUTO 35003KT 9999 NCD M00/M03 Q1045
  • 051650Z AUTO 32002KT 9999 NCD 03/00 Q1045

Expired Forecast.
ATIS : +44 1491-837766 (x7524)



MET'MAP, your aeronautical weather chart ! - Copyright ORBIFLY December 2007 - Disclaimer

ORBIFLY MET'MAP TEAM :

Programming & Development : Alexandra Zaïnal
Original concept : Baudouin d'Aumeries
Technical & hardware support : Manuel Goepfert
Assistance : Marc-Olivier Méhu




SOURCES & CREDITS :

   NOAA